sensor_id;sensor_type;location;lat;lon;timestamp;P1;durP1;ratioP1;P2;durP2;ratioP2
7154;SDS011;3619;53.784;10.440;2023-07-31T00:01:27;1.97;;;1.87;;
7154;SDS011;3619;53.784;10.440;2023-07-31T00:03:55;1.30;;;1.30;;
7154;SDS011;3619;53.784;10.440;2023-07-31T00:06:22;1.43;;;1.43;;
7154;SDS011;3619;53.784;10.440;2023-07-31T00:08:49;1.37;;;1.37;;
7154;SDS011;3619;53.784;10.440;2023-07-31T00:11:17;1.07;;;1.07;;
7154;SDS011;3619;53.784;10.440;2023-07-31T00:13:44;1.00;;;1.00;;
7154;SDS011;3619;53.784;10.440;2023-07-31T00:16:14;1.10;;;1.10;;
7154;SDS011;3619;53.784;10.440;2023-07-31T00:18:41;1.20;;;1.20;;
7154;SDS011;3619;53.784;10.440;2023-07-31T00:21:09;0.93;;;0.93;;
7154;SDS011;3619;53.784;10.440;2023-07-31T00:23:37;1.13;;;1.13;;
7154;SDS011;3619;53.784;10.440;2023-07-31T00:26:04;1.10;;;1.10;;
7154;SDS011;3619;53.784;10.440;2023-07-31T00:28:31;1.13;;;1.13;;
7154;SDS011;3619;53.784;10.440;2023-07-31T00:30:57;1.03;;;1.03;;
7154;SDS011;3619;53.784;10.440;2023-07-31T00:33:24;4.00;;;1.67;;
7154;SDS011;3619;53.784;10.440;2023-07-31T00:35:51;1.10;;;1.10;;
7154;SDS011;3619;53.784;10.440;2023-07-31T00:38:19;1.20;;;1.20;;
7154;SDS011;3619;53.784;10.440;2023-07-31T00:40:46;1.20;;;1.20;;
7154;SDS011;3619;53.784;10.440;2023-07-31T00:43:13;1.23;;;1.23;;
7154;SDS011;3619;53.784;10.440;2023-07-31T00:45:39;1.23;;;1.23;;
7154;SDS011;3619;53.784;10.440;2023-07-31T00:48:06;1.60;;;1.60;;
7154;SDS011;3619;53.784;10.440;2023-07-31T00:50:33;1.33;;;1.33;;
7154;SDS011;3619;53.784;10.440;2023-07-31T00:53:02;1.40;;;1.40;;
7154;SDS011;3619;53.784;10.440;2023-07-31T00:55:30;2.00;;;1.93;;
7154;SDS011;3619;53.784;10.440;2023-07-31T00:57:57;1.60;;;1.60;;
7154;SDS011;3619;53.784;10.440;2023-07-31T01:00:24;1.40;;;1.40;;
7154;SDS011;3619;53.784;10.440;2023-07-31T01:02:51;1.47;;;1.47;;
7154;SDS011;3619;53.784;10.440;2023-07-31T01:05:21;1.67;;;1.63;;
7154;SDS011;3619;53.784;10.440;2023-07-31T01:07:56;1.50;;;1.50;;
7154;SDS011;3619;53.784;10.440;2023-07-31T01:10:34;1.77;;;1.77;;
7154;SDS011;3619;53.784;10.440;2023-07-31T01:13:06;1.40;;;1.40;;
7154;SDS011;3619;53.784;10.440;2023-07-31T01:15:34;1.77;;;1.77;;
7154;SDS011;3619;53.784;10.440;2023-07-31T01:18:02;1.67;;;1.67;;
7154;SDS011;3619;53.784;10.440;2023-07-31T01:20:29;2.10;;;2.00;;
7154;SDS011;3619;53.784;10.440;2023-07-31T01:23:04;2.10;;;2.00;;
7154;SDS011;3619;53.784;10.440;2023-07-31T01:28:33;1.80;;;1.80;;
7154;SDS011;3619;53.784;10.440;2023-07-31T01:31:12;1.97;;;1.87;;
7154;SDS011;3619;53.784;10.440;2023-07-31T01:33:42;1.80;;;1.80;;
7154;SDS011;3619;53.784;10.440;2023-07-31T01:36:10;1.97;;;1.90;;
7154;SDS011;3619;53.784;10.440;2023-07-31T01:38:42;2.10;;;2.00;;
7154;SDS011;3619;53.784;10.440;2023-07-31T01:41:10;1.80;;;1.80;;
7154;SDS011;3619;53.784;10.440;2023-07-31T01:43:37;2.00;;;1.90;;
7154;SDS011;3619;53.784;10.440;2023-07-31T01:46:03;2.30;;;2.20;;
7154;SDS011;3619;53.784;10.440;2023-07-31T01:48:30;2.17;;;2.07;;
7154;SDS011;3619;53.784;10.440;2023-07-31T01:51:00;1.77;;;1.77;;
7154;SDS011;3619;53.784;10.440;2023-07-31T01:53:28;2.90;;;2.80;;
7154;SDS011;3619;53.784;10.440;2023-07-31T01:55:55;2.43;;;2.33;;
7154;SDS011;3619;53.784;10.440;2023-07-31T01:58:23;2.07;;;1.97;;
7154;SDS011;3619;53.784;10.440;2023-07-31T02:00:50;2.37;;;2.27;;
7154;SDS011;3619;53.784;10.440;2023-07-31T02:03:18;1.80;;;1.80;;
7154;SDS011;3619;53.784;10.440;2023-07-31T02:05:45;2.40;;;2.30;;
7154;SDS011;3619;53.784;10.440;2023-07-31T02:08:14;2.30;;;2.20;;
7154;SDS011;3619;53.784;10.440;2023-07-31T02:10:42;2.33;;;2.23;;
7154;SDS011;3619;53.784;10.440;2023-07-31T02:13:09;2.60;;;2.50;;
7154;SDS011;3619;53.784;10.440;2023-07-31T02:15:37;2.50;;;2.40;;
7154;SDS011;3619;53.784;10.440;2023-07-31T02:18:04;2.20;;;2.10;;
7154;SDS011;3619;53.784;10.440;2023-07-31T02:20:33;3.10;;;3.00;;
7154;SDS011;3619;53.784;10.440;2023-07-31T02:23:00;1.80;;;1.80;;
7154;SDS011;3619;53.784;10.440;2023-07-31T02:25:27;9.63;;;3.23;;
7154;SDS011;3619;53.784;10.440;2023-07-31T02:27:56;2.20;;;2.10;;
7154;SDS011;3619;53.784;10.440;2023-07-31T02:30:23;1.90;;;1.83;;
7154;SDS011;3619;53.784;10.440;2023-07-31T02:32:51;1.90;;;1.87;;
7154;SDS011;3619;53.784;10.440;2023-07-31T02:35:18;2.23;;;2.13;;
7154;SDS011;3619;53.784;10.440;2023-07-31T02:37:45;2.60;;;2.50;;
7154;SDS011;3619;53.784;10.440;2023-07-31T02:40:13;2.10;;;2.00;;
7154;SDS011;3619;53.784;10.440;2023-07-31T02:42:40;1.77;;;1.77;;
7154;SDS011;3619;53.784;10.440;2023-07-31T02:45:07;1.70;;;1.70;;
7154;SDS011;3619;53.784;10.440;2023-07-31T02:47:35;2.47;;;2.37;;
7154;SDS011;3619;53.784;10.440;2023-07-31T02:50:03;2.00;;;1.90;;
7154;SDS011;3619;53.784;10.440;2023-07-31T02:52:32;2.23;;;2.13;;
7154;SDS011;3619;53.784;10.440;2023-07-31T02:54:58;2.20;;;2.10;;
7154;SDS011;3619;53.784;10.440;2023-07-31T02:57:25;2.10;;;2.00;;
7154;SDS011;3619;53.784;10.440;2023-07-31T02:59:54;2.00;;;1.90;;
7154;SDS011;3619;53.784;10.440;2023-07-31T03:02:21;2.20;;;2.10;;
7154;SDS011;3619;53.784;10.440;2023-07-31T03:04:48;1.80;;;1.80;;
7154;SDS011;3619;53.784;10.440;2023-07-31T03:07:16;1.80;;;1.80;;
7154;SDS011;3619;53.784;10.440;2023-07-31T03:09:43;1.80;;;1.80;;
7154;SDS011;3619;53.784;10.440;2023-07-31T03:12:10;1.77;;;1.77;;
7154;SDS011;3619;53.784;10.440;2023-07-31T03:14:37;2.03;;;1.93;;
7154;SDS011;3619;53.784;10.440;2023-07-31T03:17:04;1.60;;;1.60;;
7154;SDS011;3619;53.784;10.440;2023-07-31T03:19:31;2.03;;;1.93;;
7154;SDS011;3619;53.784;10.440;2023-07-31T03:21:59;1.80;;;1.80;;
7154;SDS011;3619;53.784;10.440;2023-07-31T03:24:27;2.00;;;1.90;;
7154;SDS011;3619;53.784;10.440;2023-07-31T03:26:54;1.63;;;1.63;;
7154;SDS011;3619;53.784;10.440;2023-07-31T03:29:22;2.00;;;1.90;;
7154;SDS011;3619;53.784;10.440;2023-07-31T03:31:49;1.70;;;1.70;;
7154;SDS011;3619;53.784;10.440;2023-07-31T03:34:15;1.80;;;1.80;;
7154;SDS011;3619;53.784;10.440;2023-07-31T03:36:43;2.03;;;1.93;;
7154;SDS011;3619;53.784;10.440;2023-07-31T03:39:09;1.73;;;1.73;;
7154;SDS011;3619;53.784;10.440;2023-07-31T03:41:39;1.70;;;1.70;;
7154;SDS011;3619;53.784;10.440;2023-07-31T03:44:05;1.80;;;1.80;;
7154;SDS011;3619;53.784;10.440;2023-07-31T03:46:32;1.63;;;1.63;;
7154;SDS011;3619;53.784;10.440;2023-07-31T03:49:01;2.30;;;2.20;;
7154;SDS011;3619;53.784;10.440;2023-07-31T03:51:27;1.53;;;1.53;;
7154;SDS011;3619;53.784;10.440;2023-07-31T03:53:55;1.30;;;1.30;;
7154;SDS011;3619;53.784;10.440;2023-07-31T03:56:22;1.63;;;1.63;;
7154;SDS011;3619;53.784;10.440;2023-07-31T03:58:50;1.50;;;1.50;;
7154;SDS011;3619;53.784;10.440;2023-07-31T04:01:17;1.57;;;1.57;;
7154;SDS011;3619;53.784;10.440;2023-07-31T04:03:47;1.80;;;1.70;;
7154;SDS011;3619;53.784;10.440;2023-07-31T04:06:14;1.37;;;1.37;;
7154;SDS011;3619;53.784;10.440;2023-07-31T04:08:43;1.50;;;1.50;;
7154;SDS011;3619;53.784;10.440;2023-07-31T04:11:09;1.70;;;1.70;;
7154;SDS011;3619;53.784;10.440;2023-07-31T04:13:36;1.30;;;1.30;;
7154;SDS011;3619;53.784;10.440;2023-07-31T04:16:05;1.53;;;1.53;;
7154;SDS011;3619;53.784;10.440;2023-07-31T04:18:33;1.40;;;1.40;;
7154;SDS011;3619;53.784;10.440;2023-07-31T04:21:00;1.70;;;1.70;;
7154;SDS011;3619;53.784;10.440;2023-07-31T04:23:27;1.37;;;1.37;;
7154;SDS011;3619;53.784;10.440;2023-07-31T04:25:54;1.40;;;1.40;;
7154;SDS011;3619;53.784;10.440;2023-07-31T04:28:21;1.30;;;1.30;;
7154;SDS011;3619;53.784;10.440;2023-07-31T04:30:49;1.47;;;1.47;;
7154;SDS011;3619;53.784;10.440;2023-07-31T04:33:18;1.53;;;1.53;;
7154;SDS011;3619;53.784;10.440;2023-07-31T04:35:48;1.67;;;1.67;;
7154;SDS011;3619;53.784;10.440;2023-07-31T04:38:17;1.40;;;1.40;;
7154;SDS011;3619;53.784;10.440;2023-07-31T04:40:44;1.40;;;1.40;;
7154;SDS011;3619;53.784;10.440;2023-07-31T04:43:11;1.30;;;1.30;;
7154;SDS011;3619;53.784;10.440;2023-07-31T04:45:42;1.50;;;1.50;;
7154;SDS011;3619;53.784;10.440;2023-07-31T04:48:11;2.10;;;2.00;;
7154;SDS011;3619;53.784;10.440;2023-07-31T04:50:39;1.97;;;1.90;;
7154;SDS011;3619;53.784;10.440;2023-07-31T04:53:06;1.63;;;1.63;;
7154;SDS011;3619;53.784;10.440;2023-07-31T04:55:33;1.53;;;1.53;;
7154;SDS011;3619;53.784;10.440;2023-07-31T04:57:59;2.13;;;1.90;;
7154;SDS011;3619;53.784;10.440;2023-07-31T05:00:26;1.77;;;1.73;;
7154;SDS011;3619;53.784;10.440;2023-07-31T05:02:53;2.00;;;1.90;;
7154;SDS011;3619;53.784;10.440;2023-07-31T05:05:20;1.60;;;1.60;;
7154;SDS011;3619;53.784;10.440;2023-07-31T05:07:48;2.03;;;1.93;;
7154;SDS011;3619;53.784;10.440;2023-07-31T05:10:15;1.80;;;1.80;;
7154;SDS011;3619;53.784;10.440;2023-07-31T05:12:41;2.07;;;1.97;;
7154;SDS011;3619;53.784;10.440;2023-07-31T05:15:11;1.70;;;1.70;;
7154;SDS011;3619;53.784;10.440;2023-07-31T05:17:37;2.20;;;2.10;;
7154;SDS011;3619;53.784;10.440;2023-07-31T05:20:05;1.63;;;1.63;;
7154;SDS011;3619;53.784;10.440;2023-07-31T05:22:32;1.70;;;1.60;;
7154;SDS011;3619;53.784;10.440;2023-07-31T05:25:01;2.03;;;1.93;;
7154;SDS011;3619;53.784;10.440;2023-07-31T05:27:31;1.80;;;1.80;;
7154;SDS011;3619;53.784;10.440;2023-07-31T05:29:58;2.07;;;1.97;;
7154;SDS011;3619;53.784;10.440;2023-07-31T05:32:25;1.80;;;1.80;;
7154;SDS011;3619;53.784;10.440;2023-07-31T05:34:52;2.47;;;2.37;;
7154;SDS011;3619;53.784;10.440;2023-07-31T05:37:22;2.57;;;2.47;;
7154;SDS011;3619;53.784;10.440;2023-07-31T05:39:50;2.50;;;2.40;;
7154;SDS011;3619;53.784;10.440;2023-07-31T05:42:21;2.30;;;2.20;;
7154;SDS011;3619;53.784;10.440;2023-07-31T05:44:48;2.90;;;2.80;;
7154;SDS011;3619;53.784;10.440;2023-07-31T05:47:15;2.50;;;2.40;;
7154;SDS011;3619;53.784;10.440;2023-07-31T05:49:42;2.33;;;2.23;;
7154;SDS011;3619;53.784;10.440;2023-07-31T05:52:09;3.13;;;3.03;;
7154;SDS011;3619;53.784;10.440;2023-07-31T05:54:36;2.50;;;2.40;;
7154;SDS011;3619;53.784;10.440;2023-07-31T05:57:03;2.60;;;2.50;;
7154;SDS011;3619;53.784;10.440;2023-07-31T05:59:34;2.10;;;2.00;;
7154;SDS011;3619;53.784;10.440;2023-07-31T06:02:01;2.40;;;2.30;;
7154;SDS011;3619;53.784;10.440;2023-07-31T06:04:27;2.30;;;2.20;;
7154;SDS011;3619;53.784;10.440;2023-07-31T06:06:54;2.93;;;2.83;;
7154;SDS011;3619;53.784;10.440;2023-07-31T06:09:24;2.13;;;2.03;;
7154;SDS011;3619;53.784;10.440;2023-07-31T06:11:52;2.50;;;2.40;;
7154;SDS011;3619;53.784;10.440;2023-07-31T06:14:18;2.83;;;2.73;;
7154;SDS011;3619;53.784;10.440;2023-07-31T06:16:47;2.53;;;2.43;;
7154;SDS011;3619;53.784;10.440;2023-07-31T06:19:16;3.20;;;3.00;;
7154;SDS011;3619;53.784;10.440;2023-07-31T06:21:44;2.50;;;2.40;;
7154;SDS011;3619;53.784;10.440;2023-07-31T06:24:11;2.57;;;2.47;;
7154;SDS011;3619;53.784;10.440;2023-07-31T06:26:38;2.57;;;2.47;;
7154;SDS011;3619;53.784;10.440;2023-07-31T06:29:05;2.50;;;2.40;;
7154;SDS011;3619;53.784;10.440;2023-07-31T06:31:32;2.50;;;2.40;;
7154;SDS011;3619;53.784;10.440;2023-07-31T06:34:04;2.83;;;2.73;;
7154;SDS011;3619;53.784;10.440;2023-07-31T06:36:58;2.93;;;2.83;;
7154;SDS011;3619;53.784;10.440;2023-07-31T06:39:30;3.47;;;3.37;;
7154;SDS011;3619;53.784;10.440;2023-07-31T06:42:58;3.90;;;3.80;;
7154;SDS011;3619;53.784;10.440;2023-07-31T06:45:22;3.13;;;3.03;;
7154;SDS011;3619;53.784;10.440;2023-07-31T06:48:38;3.80;;;3.70;;
7154;SDS011;3619;53.784;10.440;2023-07-31T06:51:05;4.30;;;4.10;;
7154;SDS011;3619;53.784;10.440;2023-07-31T06:53:41;3.80;;;3.70;;
7154;SDS011;3619;53.784;10.440;2023-07-31T06:56:16;3.43;;;3.33;;
7154;SDS011;3619;53.784;10.440;2023-07-31T06:58:47;3.73;;;3.63;;
7154;SDS011;3619;53.784;10.440;2023-07-31T07:01:14;3.17;;;3.07;;
7154;SDS011;3619;53.784;10.440;2023-07-31T07:03:41;3.50;;;3.40;;
7154;SDS011;3619;53.784;10.440;2023-07-31T07:06:10;3.13;;;3.03;;
7154;SDS011;3619;53.784;10.440;2023-07-31T07:08:36;3.13;;;3.03;;
7154;SDS011;3619;53.784;10.440;2023-07-31T07:11:03;2.90;;;2.80;;
7154;SDS011;3619;53.784;10.440;2023-07-31T07:13:32;3.37;;;3.27;;
7154;SDS011;3619;53.784;10.440;2023-07-31T07:15:59;3.53;;;3.43;;
7154;SDS011;3619;53.784;10.440;2023-07-31T07:18:26;3.47;;;3.37;;
7154;SDS011;3619;53.784;10.440;2023-07-31T07:20:53;3.20;;;3.10;;
7154;SDS011;3619;53.784;10.440;2023-07-31T07:23:24;3.43;;;3.33;;
7154;SDS011;3619;53.784;10.440;2023-07-31T07:25:52;3.00;;;2.90;;
7154;SDS011;3619;53.784;10.440;2023-07-31T07:28:18;2.87;;;2.77;;
7154;SDS011;3619;53.784;10.440;2023-07-31T07:30:50;2.70;;;2.60;;
7154;SDS011;3619;53.784;10.440;2023-07-31T07:33:18;2.73;;;2.63;;
7154;SDS011;3619;53.784;10.440;2023-07-31T07:35:44;2.70;;;2.60;;
7154;SDS011;3619;53.784;10.440;2023-07-31T07:38:11;2.77;;;2.67;;
7154;SDS011;3619;53.784;10.440;2023-07-31T07:40:41;2.30;;;2.20;;
7154;SDS011;3619;53.784;10.440;2023-07-31T07:43:08;2.67;;;2.57;;
7154;SDS011;3619;53.784;10.440;2023-07-31T07:45:35;2.93;;;2.83;;
7154;SDS011;3619;53.784;10.440;2023-07-31T07:48:02;2.80;;;2.70;;
7154;SDS011;3619;53.784;10.440;2023-07-31T07:50:29;2.37;;;2.27;;
7154;SDS011;3619;53.784;10.440;2023-07-31T07:52:56;2.63;;;2.53;;
7154;SDS011;3619;53.784;10.440;2023-07-31T07:55:23;2.37;;;2.27;;
7154;SDS011;3619;53.784;10.440;2023-07-31T07:57:51;2.57;;;2.47;;
7154;SDS011;3619;53.784;10.440;2023-07-31T08:00:18;2.63;;;2.53;;
7154;SDS011;3619;53.784;10.440;2023-07-31T08:02:45;2.80;;;2.70;;
7154;SDS011;3619;53.784;10.440;2023-07-31T08:05:12;2.77;;;2.67;;
7154;SDS011;3619;53.784;10.440;2023-07-31T08:07:42;2.43;;;2.33;;
7154;SDS011;3619;53.784;10.440;2023-07-31T08:10:09;2.40;;;2.30;;
7154;SDS011;3619;53.784;10.440;2023-07-31T08:12:40;2.47;;;2.37;;
7154;SDS011;3619;53.784;10.440;2023-07-31T08:15:09;2.63;;;2.53;;
7154;SDS011;3619;53.784;10.440;2023-07-31T08:17:36;2.13;;;2.03;;
7154;SDS011;3619;53.784;10.440;2023-07-31T08:20:03;2.43;;;2.33;;
7154;SDS011;3619;53.784;10.440;2023-07-31T08:22:31;2.23;;;2.13;;
7154;SDS011;3619;53.784;10.440;2023-07-31T08:24:57;2.33;;;2.23;;
7154;SDS011;3619;53.784;10.440;2023-07-31T08:27:24;2.50;;;2.40;;
7154;SDS011;3619;53.784;10.440;2023-07-31T08:29:51;2.97;;;2.87;;
7154;SDS011;3619;53.784;10.440;2023-07-31T08:32:25;2.73;;;2.63;;
7154;SDS011;3619;53.784;10.440;2023-07-31T08:34:52;2.53;;;2.43;;
7154;SDS011;3619;53.784;10.440;2023-07-31T08:37:19;3.10;;;3.00;;
7154;SDS011;3619;53.784;10.440;2023-07-31T08:39:47;19.03;;;3.47;;
7154;SDS011;3619;53.784;10.440;2023-07-31T08:42:14;2.60;;;2.50;;
7154;SDS011;3619;53.784;10.440;2023-07-31T08:44:40;2.97;;;2.87;;
7154;SDS011;3619;53.784;10.440;2023-07-31T08:47:09;2.87;;;2.77;;
7154;SDS011;3619;53.784;10.440;2023-07-31T08:49:39;3.03;;;2.93;;
7154;SDS011;3619;53.784;10.440;2023-07-31T08:52:07;3.03;;;2.93;;
7154;SDS011;3619;53.784;10.440;2023-07-31T08:54:34;3.33;;;3.23;;
7154;SDS011;3619;53.784;10.440;2023-07-31T08:57:01;3.40;;;3.30;;
7154;SDS011;3619;53.784;10.440;2023-07-31T08:59:28;3.00;;;2.90;;
7154;SDS011;3619;53.784;10.440;2023-07-31T09:01:57;3.17;;;3.07;;
7154;SDS011;3619;53.784;10.440;2023-07-31T09:04:28;3.37;;;3.27;;
7154;SDS011;3619;53.784;10.440;2023-07-31T09:06:59;2.60;;;2.50;;
7154;SDS011;3619;53.784;10.440;2023-07-31T09:09:28;2.90;;;2.80;;
7154;SDS011;3619;53.784;10.440;2023-07-31T09:11:55;3.67;;;3.47;;
7154;SDS011;3619;53.784;10.440;2023-07-31T09:14:23;3.33;;;3.23;;
7154;SDS011;3619;53.784;10.440;2023-07-31T09:16:52;3.40;;;3.30;;
7154;SDS011;3619;53.784;10.440;2023-07-31T09:19:26;2.80;;;2.70;;
7154;SDS011;3619;53.784;10.440;2023-07-31T09:21:54;3.23;;;3.13;;
7154;SDS011;3619;53.784;10.440;2023-07-31T09:24:28;3.07;;;2.97;;
7154;SDS011;3619;53.784;10.440;2023-07-31T09:26:57;2.80;;;2.70;;
7154;SDS011;3619;53.784;10.440;2023-07-31T09:29:25;2.60;;;2.50;;
7154;SDS011;3619;53.784;10.440;2023-07-31T09:31:52;2.57;;;2.47;;
7154;SDS011;3619;53.784;10.440;2023-07-31T09:34:20;2.90;;;2.80;;
7154;SDS011;3619;53.784;10.440;2023-07-31T09:36:57;2.80;;;2.70;;
7154;SDS011;3619;53.784;10.440;2023-07-31T09:39:29;2.90;;;2.80;;
7154;SDS011;3619;53.784;10.440;2023-07-31T09:41:56;2.90;;;2.80;;
7154;SDS011;3619;53.784;10.440;2023-07-31T09:44:30;2.93;;;2.83;;
7154;SDS011;3619;53.784;10.440;2023-07-31T09:47:06;3.00;;;2.90;;
7154;SDS011;3619;53.784;10.440;2023-07-31T09:49:50;3.57;;;3.47;;
7154;SDS011;3619;53.784;10.440;2023-07-31T09:52:17;3.93;;;3.83;;
7154;SDS011;3619;53.784;10.440;2023-07-31T09:54:47;3.60;;;3.50;;
7154;SDS011;3619;53.784;10.440;2023-07-31T09:57:14;3.63;;;3.53;;
7154;SDS011;3619;53.784;10.440;2023-07-31T09:59:45;4.10;;;4.00;;
7154;SDS011;3619;53.784;10.440;2023-07-31T10:02:14;4.10;;;4.00;;
7154;SDS011;3619;53.784;10.440;2023-07-31T10:04:44;4.67;;;4.47;;
7154;SDS011;3619;53.784;10.440;2023-07-31T10:07:13;5.07;;;4.87;;
7154;SDS011;3619;53.784;10.440;2023-07-31T10:09:44;6.43;;;6.13;;
7154;SDS011;3619;53.784;10.440;2023-07-31T10:12:15;6.07;;;5.87;;
7154;SDS011;3619;53.784;10.440;2023-07-31T10:14:45;6.53;;;6.33;;
7154;SDS011;3619;53.784;10.440;2023-07-31T10:17:12;9.63;;;9.23;;
7154;SDS011;3619;53.784;10.440;2023-07-31T10:19:40;8.70;;;8.40;;
7154;SDS011;3619;53.784;10.440;2023-07-31T10:22:07;9.13;;;8.73;;
7154;SDS011;3619;53.784;10.440;2023-07-31T10:24:34;8.13;;;7.83;;
7154;SDS011;3619;53.784;10.440;2023-07-31T10:27:04;10.70;;;10.30;;
7154;SDS011;3619;53.784;10.440;2023-07-31T10:29:36;10.83;;;10.43;;
7154;SDS011;3619;53.784;10.440;2023-07-31T10:32:06;13.33;;;12.83;;
7154;SDS011;3619;53.784;10.440;2023-07-31T10:34:38;14.37;;;13.87;;
7154;SDS011;3619;53.784;10.440;2023-07-31T10:39:55;12.27;;;11.80;;
7154;SDS011;3619;53.784;10.440;2023-07-31T10:42:32;10.43;;;10.03;;
7154;SDS011;3619;53.784;10.440;2023-07-31T10:45:06;10.13;;;9.73;;
7154;SDS011;3619;53.784;10.440;2023-07-31T10:47:42;9.10;;;8.80;;
7154;SDS011;3619;53.784;10.440;2023-07-31T10:50:10;10.10;;;9.70;;
7154;SDS011;3619;53.784;10.440;2023-07-31T10:52:44;9.33;;;9.03;;
7154;SDS011;3619;53.784;10.440;2023-07-31T10:55:14;9.37;;;9.07;;
7154;SDS011;3619;53.784;10.440;2023-07-31T10:57:44;9.87;;;9.47;;
7154;SDS011;3619;53.784;10.440;2023-07-31T11:00:30;10.90;;;10.50;;
7154;SDS011;3619;53.784;10.440;2023-07-31T11:02:58;13.80;;;13.30;;
7154;SDS011;3619;53.784;10.440;2023-07-31T11:05:43;12.33;;;11.83;;
7154;SDS011;3619;53.784;10.440;2023-07-31T11:08:15;11.77;;;11.37;;
7154;SDS011;3619;53.784;10.440;2023-07-31T11:10:44;12.63;;;12.13;;
7154;SDS011;3619;53.784;10.440;2023-07-31T11:13:11;12.83;;;12.33;;
7154;SDS011;3619;53.784;10.440;2023-07-31T11:15:40;11.70;;;11.30;;
7154;SDS011;3619;53.784;10.440;2023-07-31T11:18:07;11.50;;;11.10;;
7154;SDS011;3619;53.784;10.440;2023-07-31T11:20:37;11.93;;;11.53;;
7154;SDS011;3619;53.784;10.440;2023-07-31T11:23:06;10.73;;;10.33;;
7154;SDS011;3619;53.784;10.440;2023-07-31T11:25:34;10.23;;;9.83;;
7154;SDS011;3619;53.784;10.440;2023-07-31T11:28:05;9.73;;;9.33;;
7154;SDS011;3619;53.784;10.440;2023-07-31T11:30:32;11.47;;;11.07;;
7154;SDS011;3619;53.784;10.440;2023-07-31T11:33:02;12.43;;;11.93;;
7154;SDS011;3619;53.784;10.440;2023-07-31T11:35:30;13.77;;;13.27;;
7154;SDS011;3619;53.784;10.440;2023-07-31T11:37:58;13.37;;;12.87;;
7154;SDS011;3619;53.784;10.440;2023-07-31T11:40:25;12.70;;;12.20;;
7154;SDS011;3619;53.784;10.440;2023-07-31T11:42:54;13.70;;;13.20;;
7154;SDS011;3619;53.784;10.440;2023-07-31T11:45:23;13.57;;;13.07;;
7154;SDS011;3619;53.784;10.440;2023-07-31T11:47:52;10.63;;;10.23;;
7154;SDS011;3619;53.784;10.440;2023-07-31T11:50:22;10.77;;;10.37;;
7154;SDS011;3619;53.784;10.440;2023-07-31T11:52:50;10.37;;;9.97;;
7154;SDS011;3619;53.784;10.440;2023-07-31T11:55:20;11.70;;;11.23;;
7154;SDS011;3619;53.784;10.440;2023-07-31T11:57:48;10.40;;;10.00;;
7154;SDS011;3619;53.784;10.440;2023-07-31T12:00:15;10.00;;;9.60;;
7154;SDS011;3619;53.784;10.440;2023-07-31T12:02:44;9.03;;;8.73;;
7154;SDS011;3619;53.784;10.440;2023-07-31T12:05:12;9.73;;;9.33;;
7154;SDS011;3619;53.784;10.440;2023-07-31T12:07:47;9.90;;;9.50;;
7154;SDS011;3619;53.784;10.440;2023-07-31T12:10:26;9.20;;;8.90;;
7154;SDS011;3619;53.784;10.440;2023-07-31T12:13:09;10.20;;;9.80;;
7154;SDS011;3619;53.784;10.440;2023-07-31T12:18:28;10.20;;;9.80;;
7154;SDS011;3619;53.784;10.440;2023-07-31T12:20:57;9.37;;;9.07;;
7154;SDS011;3619;53.784;10.440;2023-07-31T12:23:27;9.23;;;8.93;;
7154;SDS011;3619;53.784;10.440;2023-07-31T12:26:02;9.93;;;9.53;;
7154;SDS011;3619;53.784;10.440;2023-07-31T12:28:34;10.40;;;10.00;;
7154;SDS011;3619;53.784;10.440;2023-07-31T12:31:01;13.40;;;12.90;;
7154;SDS011;3619;53.784;10.440;2023-07-31T12:33:30;15.03;;;14.43;;
7154;SDS011;3619;53.784;10.440;2023-07-31T12:36:00;18.23;;;17.53;;
7154;SDS011;3619;53.784;10.440;2023-07-31T12:38:29;18.60;;;17.87;;
7154;SDS011;3619;53.784;10.440;2023-07-31T12:40:58;15.40;;;14.80;;
7154;SDS011;3619;53.784;10.440;2023-07-31T12:43:26;15.40;;;14.80;;
7154;SDS011;3619;53.784;10.440;2023-07-31T12:45:53;15.60;;;15.00;;
7154;SDS011;3619;53.784;10.440;2023-07-31T12:48:21;16.93;;;16.33;;
7154;SDS011;3619;53.784;10.440;2023-07-31T12:50:48;19.63;;;18.80;;
7154;SDS011;3619;53.784;10.440;2023-07-31T12:53:15;13.33;;;12.83;;
7154;SDS011;3619;53.784;10.440;2023-07-31T12:55:43;8.67;;;8.37;;
7154;SDS011;3619;53.784;10.440;2023-07-31T12:58:10;7.17;;;6.87;;
7154;SDS011;3619;53.784;10.440;2023-07-31T13:00:37;7.87;;;7.57;;
7154;SDS011;3619;53.784;10.440;2023-07-31T13:03:03;9.13;;;8.83;;
7154;SDS011;3619;53.784;10.440;2023-07-31T13:05:30;10.37;;;9.97;;
7154;SDS011;3619;53.784;10.440;2023-07-31T13:07:57;10.63;;;10.23;;
7154;SDS011;3619;53.784;10.440;2023-07-31T13:10:25;11.60;;;11.20;;
7154;SDS011;3619;53.784;10.440;2023-07-31T13:12:55;10.90;;;10.50;;
7154;SDS011;3619;53.784;10.440;2023-07-31T13:15:21;9.47;;;9.13;;
7154;SDS011;3619;53.784;10.440;2023-07-31T13:17:48;8.23;;;7.93;;
7154;SDS011;3619;53.784;10.440;2023-07-31T13:20:24;8.73;;;8.43;;
7154;SDS011;3619;53.784;10.440;2023-07-31T13:22:51;8.13;;;7.83;;
7154;SDS011;3619;53.784;10.440;2023-07-31T13:25:18;7.80;;;7.50;;
7154;SDS011;3619;53.784;10.440;2023-07-31T13:27:45;7.33;;;7.03;;
7154;SDS011;3619;53.784;10.440;2023-07-31T13:30:17;5.90;;;5.67;;
7154;SDS011;3619;53.784;10.440;2023-07-31T13:32:43;5.17;;;4.97;;
7154;SDS011;3619;53.784;10.440;2023-07-31T13:35:10;5.60;;;5.40;;
7154;SDS011;3619;53.784;10.440;2023-07-31T13:37:37;5.33;;;5.13;;
7154;SDS011;3619;53.784;10.440;2023-07-31T13:40:04;5.13;;;4.93;;
7154;SDS011;3619;53.784;10.440;2023-07-31T13:42:32;4.87;;;4.67;;
7154;SDS011;3619;53.784;10.440;2023-07-31T13:44:59;5.47;;;5.27;;
7154;SDS011;3619;53.784;10.440;2023-07-31T13:47:27;3.90;;;3.80;;
7154;SDS011;3619;53.784;10.440;2023-07-31T13:49:54;5.17;;;4.97;;
7154;SDS011;3619;53.784;10.440;2023-07-31T13:52:22;5.70;;;5.50;;
7154;SDS011;3619;53.784;10.440;2023-07-31T13:54:49;5.37;;;5.17;;
7154;SDS011;3619;53.784;10.440;2023-07-31T13:57:15;5.20;;;5.00;;
7154;SDS011;3619;53.784;10.440;2023-07-31T13:59:42;4.20;;;4.10;;
7154;SDS011;3619;53.784;10.440;2023-07-31T14:02:10;4.53;;;4.33;;
7154;SDS011;3619;53.784;10.440;2023-07-31T14:04:40;4.03;;;3.93;;
7154;SDS011;3619;53.784;10.440;2023-07-31T14:07:07;2.73;;;2.63;;
7154;SDS011;3619;53.784;10.440;2023-07-31T14:09:33;3.10;;;3.00;;
7154;SDS011;3619;53.784;10.440;2023-07-31T14:12:00;3.47;;;3.37;;
7154;SDS011;3619;53.784;10.440;2023-07-31T14:14:27;3.23;;;3.13;;
7154;SDS011;3619;53.784;10.440;2023-07-31T14:16:54;2.70;;;2.60;;
7154;SDS011;3619;53.784;10.440;2023-07-31T14:19:20;2.90;;;2.80;;
7154;SDS011;3619;53.784;10.440;2023-07-31T14:21:51;3.33;;;3.23;;
7154;SDS011;3619;53.784;10.440;2023-07-31T14:24:19;3.13;;;3.03;;
7154;SDS011;3619;53.784;10.440;2023-07-31T14:26:46;3.47;;;3.37;;
7154;SDS011;3619;53.784;10.440;2023-07-31T14:29:20;3.43;;;3.33;;
7154;SDS011;3619;53.784;10.440;2023-07-31T14:31:49;3.00;;;2.90;;
7154;SDS011;3619;53.784;10.440;2023-07-31T14:34:16;2.57;;;2.47;;
7154;SDS011;3619;53.784;10.440;2023-07-31T14:36:45;3.07;;;2.97;;
7154;SDS011;3619;53.784;10.440;2023-07-31T14:39:15;3.67;;;3.57;;
7154;SDS011;3619;53.784;10.440;2023-07-31T14:41:42;3.83;;;3.73;;
7154;SDS011;3619;53.784;10.440;2023-07-31T14:44:09;3.63;;;3.53;;
7154;SDS011;3619;53.784;10.440;2023-07-31T14:46:41;3.67;;;3.57;;
7154;SDS011;3619;53.784;10.440;2023-07-31T14:49:08;3.77;;;3.67;;
7154;SDS011;3619;53.784;10.440;2023-07-31T14:51:35;3.43;;;3.33;;
7154;SDS011;3619;53.784;10.440;2023-07-31T14:54:02;2.87;;;2.77;;
7154;SDS011;3619;53.784;10.440;2023-07-31T14:56:33;3.10;;;3.00;;
7154;SDS011;3619;53.784;10.440;2023-07-31T14:59:22;2.60;;;2.40;;
7154;SDS011;3619;53.784;10.440;2023-07-31T15:01:49;2.93;;;2.83;;
7154;SDS011;3619;53.784;10.440;2023-07-31T15:04:15;2.70;;;2.60;;
7154;SDS011;3619;53.784;10.440;2023-07-31T15:06:47;2.50;;;2.40;;
7154;SDS011;3619;53.784;10.440;2023-07-31T15:09:15;2.23;;;2.13;;
7154;SDS011;3619;53.784;10.440;2023-07-31T15:11:43;1.83;;;1.83;;
7154;SDS011;3619;53.784;10.440;2023-07-31T15:14:12;2.10;;;2.00;;
7154;SDS011;3619;53.784;10.440;2023-07-31T15:16:39;2.10;;;2.00;;